sensor_id;sensor_type;location;lat;lon;timestamp;pressure;altitude;pressure_sealevel;temperature;humidity
9893;BME280;4985;49.092;8.542;2022-12-05T00:01:13;99163.50;;;12.62;54.94
9893;BME280;4985;49.092;8.542;2022-12-05T00:03:40;99166.97;;;12.63;54.95
9893;BME280;4985;49.092;8.542;2022-12-05T00:06:06;99152.94;;;12.62;54.94
9893;BME280;4985;49.092;8.542;2022-12-05T00:08:33;99158.22;;;12.62;54.94
9893;BME280;4985;49.092;8.542;2022-12-05T00:11:00;99154.59;;;12.63;54.91
9893;BME280;4985;49.092;8.542;2022-12-05T00:13:26;99159.88;;;12.63;54.93
9893;BME280;4985;49.092;8.542;2022-12-05T00:15:53;99166.78;;;12.64;54.91
9893;BME280;4985;49.092;8.542;2022-12-05T00:18:21;99171.25;;;12.64;54.90
9893;BME280;4985;49.092;8.542;2022-12-05T00:20:48;99174.06;;;12.62;54.94
9893;BME280;4985;49.092;8.542;2022-12-05T00:23:14;99177.09;;;12.59;54.98
9893;BME280;4985;49.092;8.542;2022-12-05T00:25:41;99176.09;;;12.60;55.00
9893;BME280;4985;49.092;8.542;2022-12-05T00:28:07;99179.72;;;12.59;55.03
9893;BME280;4985;49.092;8.542;2022-12-05T00:30:34;99188.66;;;12.58;55.04
9893;BME280;4985;49.092;8.542;2022-12-05T00:33:01;99177.09;;;12.59;55.03
9893;BME280;4985;49.092;8.542;2022-12-05T00:35:28;99174.44;;;12.59;55.03
9893;BME280;4985;49.092;8.542;2022-12-05T00:37:55;99183.00;;;12.61;54.99
9893;BME280;4985;49.092;8.542;2022-12-05T00:40:21;99181.38;;;12.60;54.97
9893;BME280;4985;49.092;8.542;2022-12-05T00:42:48;99182.19;;;12.61;54.95
9893;BME280;4985;49.092;8.542;2022-12-05T00:45:15;99181.38;;;12.60;54.95
9893;BME280;4985;49.092;8.542;2022-12-05T00:47:41;99177.72;;;12.61;54.94
9893;BME280;4985;49.092;8.542;2022-12-05T00:50:08;99177.72;;;12.61;54.92
9893;BME280;4985;49.092;8.542;2022-12-05T00:52:36;99179.34;;;12.62;54.92
9893;BME280;4985;49.092;8.542;2022-12-05T00:55:03;99182.19;;;12.61;54.93
9893;BME280;4985;49.092;8.542;2022-12-05T00:57:31;99186.66;;;12.60;54.95
9893;BME280;4985;49.092;8.542;2022-12-05T00:59:57;99185.34;;;12.56;54.95
9893;BME280;4985;49.092;8.542;2022-12-05T01:02:24;99185.63;;;12.61;54.94
9893;BME280;4985;49.092;8.542;2022-12-05T01:04:50;99196.22;;;12.61;54.94
9893;BME280;4985;49.092;8.542;2022-12-05T01:07:17;99188.28;;;12.61;54.92
9893;BME280;4985;49.092;8.542;2022-12-05T01:09:45;99189.28;;;12.60;54.92
9893;BME280;4985;49.092;8.542;2022-12-05T01:12:11;99189.28;;;12.60;54.94
9893;BME280;4985;49.092;8.542;2022-12-05T01:14:38;99183.19;;;12.60;54.93
9893;BME280;4985;49.092;8.542;2022-12-05T01:17:05;99190.28;;;12.59;54.95
9893;BME280;4985;49.092;8.542;2022-12-05T01:19:32;99198.22;;;12.59;54.96
9893;BME280;4985;49.092;8.542;2022-12-05T01:21:59;99197.38;;;12.59;54.96
9893;BME280;4985;49.092;8.542;2022-12-05T01:24:26;99196.72;;;12.57;55.00
9893;BME280;4985;49.092;8.542;2022-12-05T01:26:54;99193.63;;;12.53;55.02
9893;BME280;4985;49.092;8.542;2022-12-05T01:29:22;99192.44;;;12.56;55.04
9893;BME280;4985;49.092;8.542;2022-12-05T01:31:49;99202.84;;;12.57;55.03
9893;BME280;4985;49.092;8.542;2022-12-05T01:34:17;99222.31;;;12.56;55.04
9893;BME280;4985;49.092;8.542;2022-12-05T01:36:44;99217.22;;;12.54;55.05
9893;BME280;4985;49.092;8.542;2022-12-05T01:39:11;99224.94;;;12.56;55.04
9893;BME280;4985;49.092;8.542;2022-12-05T01:41:40;99225.94;;;12.55;55.04
9893;BME280;4985;49.092;8.542;2022-12-05T01:47:08;99223.13;;;12.57;55.02
9893;BME280;4985;49.092;8.542;2022-12-05T01:49:36;99222.31;;;12.56;55.00
9893;BME280;4985;49.092;8.542;2022-12-05T01:52:07;99221.34;;;12.57;55.00
9893;BME280;4985;49.092;8.542;2022-12-05T01:54:36;99219.66;;;12.56;55.00
9893;BME280;4985;49.092;8.542;2022-12-05T01:57:06;99227.59;;;12.56;55.00
9893;BME280;4985;49.092;8.542;2022-12-05T01:59:37;99226.94;;;12.54;55.02
9893;BME280;4985;49.092;8.542;2022-12-05T02:02:04;99225.94;;;12.55;55.03
9893;BME280;4985;49.092;8.542;2022-12-05T02:04:35;99230.41;;;12.54;55.03
9893;BME280;4985;49.092;8.542;2022-12-05T02:07:03;99220.66;;;12.55;55.01
9893;BME280;4985;49.092;8.542;2022-12-05T02:09:30;99222.31;;;12.56;55.01
9893;BME280;4985;49.092;8.542;2022-12-05T02:11:58;99215.37;;;12.55;55.01
9893;BME280;4985;49.092;8.542;2022-12-05T02:14:31;99224.31;;;12.54;55.03
9893;BME280;4985;49.092;8.542;2022-12-05T02:17:08;99228.12;;;12.51;55.08
9893;BME280;4985;49.092;8.542;2022-12-05T02:20:07;99237.88;;;12.51;55.08
9893;BME280;4985;49.092;8.542;2022-12-05T02:26:03;99256.19;;;12.52;55.08
9893;BME280;4985;49.092;8.542;2022-12-05T02:28:50;99258.00;;;12.52;55.08
9893;BME280;4985;49.092;8.542;2022-12-05T02:31:26;99270.19;;;12.53;55.10
9893;BME280;4985;49.092;8.542;2022-12-05T02:34:01;99263.28;;;12.52;55.07
9893;BME280;4985;49.092;8.542;2022-12-05T02:36:34;99259.81;;;12.51;55.06
9893;BME280;4985;49.092;8.542;2022-12-05T02:39:10;99259.63;;;12.53;55.04
9893;BME280;4985;49.092;8.542;2022-12-05T02:41:44;99263.28;;;12.52;55.06
9893;BME280;4985;49.092;8.542;2022-12-05T02:44:16;99259.63;;;12.53;55.06
9893;BME280;4985;49.092;8.542;2022-12-05T02:46:47;99259.00;;;12.51;55.07
9893;BME280;4985;49.092;8.542;2022-12-05T02:49:19;99256.34;;;12.51;55.08
9893;BME280;4985;49.092;8.542;2022-12-05T02:51:51;99255.06;;;12.47;55.06
9893;BME280;4985;49.092;8.542;2022-12-05T02:54:20;99264.91;;;12.53;55.04
9893;BME280;4985;49.092;8.542;2022-12-05T02:56:48;99264.91;;;12.53;55.03
9893;BME280;4985;49.092;8.542;2022-12-05T02:59:16;99272.00;;;12.52;55.02
9893;BME280;4985;49.092;8.542;2022-12-05T03:01:44;99277.13;;;12.54;55.00
9893;BME280;4985;49.092;8.542;2022-12-05T03:04:13;99291.31;;;12.53;55.03
9893;BME280;4985;49.092;8.542;2022-12-05T03:06:44;99288.69;;;12.53;55.01
9893;BME280;4985;49.092;8.542;2022-12-05T03:09:15;99286.03;;;12.53;54.99
9893;BME280;4985;49.092;8.542;2022-12-05T03:11:48;99291.97;;;12.55;54.95
9893;BME280;4985;49.092;8.542;2022-12-05T03:14:19;99285.69;;;12.56;54.92
9893;BME280;4985;49.092;8.542;2022-12-05T03:16:49;99290.13;;;12.56;54.92
9893;BME280;4985;49.092;8.542;2022-12-05T03:19:22;99298.88;;;12.56;54.91
9893;BME280;4985;49.092;8.542;2022-12-05T03:21:54;99291.69;;;12.50;54.95
9893;BME280;4985;49.092;8.542;2022-12-05T03:24:24;99296.59;;;12.53;54.98
9893;BME280;4985;49.092;8.542;2022-12-05T03:26:56;99297.41;;;12.53;54.94
9893;BME280;4985;49.092;8.542;2022-12-05T03:29:32;99300.06;;;12.53;54.96
9893;BME280;4985;49.092;8.542;2022-12-05T03:32:05;99302.69;;;12.53;54.97
9893;BME280;4985;49.092;8.542;2022-12-05T03:34:48;99291.03;;;12.48;54.97
9893;BME280;4985;49.092;8.542;2022-12-05T03:37:23;99298.25;;;12.54;54.94
9893;BME280;4985;49.092;8.542;2022-12-05T03:40:02;99292.97;;;12.54;54.94
9893;BME280;4985;49.092;8.542;2022-12-05T03:42:34;99284.03;;;12.55;54.93
9893;BME280;4985;49.092;8.542;2022-12-05T03:45:06;99280.75;;;12.53;54.91
9893;BME280;4985;49.092;8.542;2022-12-05T03:47:39;99273.47;;;12.55;54.91
9893;BME280;4985;49.092;8.542;2022-12-05T03:50:15;99260.63;;;12.52;54.88
9893;BME280;4985;49.092;8.542;2022-12-05T03:52:46;99277.13;;;12.54;54.89
9893;BME280;4985;49.092;8.542;2022-12-05T03:55:16;99279.75;;;12.54;54.90
9893;BME280;4985;49.092;8.542;2022-12-05T03:57:46;99282.41;;;12.54;54.91
9893;BME280;4985;49.092;8.542;2022-12-05T04:00:16;99285.03;;;12.54;54.89
9893;BME280;4985;49.092;8.542;2022-12-05T04:02:46;99288.31;;;12.56;54.87
9893;BME280;4985;49.092;8.542;2022-12-05T04:05:18;99284.03;;;12.55;54.88
9893;BME280;4985;49.092;8.542;2022-12-05T04:07:48;99292.97;;;12.54;54.86
9893;BME280;4985;49.092;8.542;2022-12-05T04:10:19;99294.59;;;12.55;54.88
9893;BME280;4985;49.092;8.542;2022-12-05T04:12:48;99289.31;;;12.55;54.87
9893;BME280;4985;49.092;8.542;2022-12-05T04:15:19;99282.41;;;12.54;54.88
9893;BME280;4985;49.092;8.542;2022-12-05T04:17:51;99282.41;;;12.54;54.87
9893;BME280;4985;49.092;8.542;2022-12-05T04:20:21;99295.59;;;12.54;54.89
9893;BME280;4985;49.092;8.542;2022-12-05T04:23:07;99292.13;;;12.53;54.88
9893;BME280;4985;49.092;8.542;2022-12-05T04:25:36;99282.56;;;12.52;54.88
9893;BME280;4985;49.092;8.542;2022-12-05T04:28:20;99287.69;;;12.54;54.90
9893;BME280;4985;49.092;8.542;2022-12-05T04:30:59;99287.69;;;12.54;54.88
9893;BME280;4985;49.092;8.542;2022-12-05T04:33:33;99286.84;;;12.53;54.87
9893;BME280;4985;49.092;8.542;2022-12-05T04:36:06;99292.13;;;12.53;54.88
9893;BME280;4985;49.092;8.542;2022-12-05T04:38:41;99293.13;;;12.52;54.87
9893;BME280;4985;49.092;8.542;2022-12-05T04:41:12;99299.25;;;12.53;54.88
9893;BME280;4985;49.092;8.542;2022-12-05T04:43:43;99296.59;;;12.53;54.88
9893;BME280;4985;49.092;8.542;2022-12-05T04:46:12;99304.53;;;12.53;54.89
9893;BME280;4985;49.092;8.542;2022-12-05T04:48:41;99303.25;;;12.49;54.88
9893;BME280;4985;49.092;8.542;2022-12-05T04:51:15;99311.62;;;12.52;54.90
9893;BME280;4985;49.092;8.542;2022-12-05T04:53:44;99299.59;;;12.50;54.90
9893;BME280;4985;49.092;8.542;2022-12-05T04:56:14;99311.81;;;12.51;54.91
9893;BME280;4985;49.092;8.542;2022-12-05T04:58:44;99307.34;;;12.51;54.91
9893;BME280;4985;49.092;8.542;2022-12-05T05:01:14;99314.44;;;12.51;54.91
9893;BME280;4985;49.092;8.542;2022-12-05T05:03:45;99314.44;;;12.51;54.92
9893;BME280;4985;49.092;8.542;2022-12-05T05:06:15;99312.63;;;12.51;54.92
9893;BME280;4985;49.092;8.542;2022-12-05T05:08:47;99314.63;;;12.49;54.94
9893;BME280;4985;49.092;8.542;2022-12-05T05:11:16;99322.37;;;12.51;54.90
9893;BME280;4985;49.092;8.542;2022-12-05T05:13:43;99315.25;;;12.51;54.90
9893;BME280;4985;49.092;8.542;2022-12-05T05:16:13;99314.44;;;12.51;54.89
9893;BME280;4985;49.092;8.542;2022-12-05T05:18:42;99311.81;;;12.51;54.88
9893;BME280;4985;49.092;8.542;2022-12-05T05:21:15;99319.72;;;12.51;54.87
9893;BME280;4985;49.092;8.542;2022-12-05T05:23:44;99318.91;;;12.50;54.89
9893;BME280;4985;49.092;8.542;2022-12-05T05:26:11;99321.53;;;12.50;54.91
9893;BME280;4985;49.092;8.542;2022-12-05T05:28:37;99325.81;;;12.51;54.89
9893;BME280;4985;49.092;8.542;2022-12-05T05:31:05;99317.09;;;12.51;54.85
9893;BME280;4985;49.092;8.542;2022-12-05T05:33:32;99328.28;;;12.53;54.84
9893;BME280;4985;49.092;8.542;2022-12-05T05:36:02;99330.94;;;12.53;54.84
9893;BME280;4985;49.092;8.542;2022-12-05T05:38:30;99333.56;;;12.53;54.83
9893;BME280;4985;49.092;8.542;2022-12-05T05:40:57;99339.03;;;12.51;54.84
9893;BME280;4985;49.092;8.542;2022-12-05T05:43:23;99330.94;;;12.53;54.83
9893;BME280;4985;49.092;8.542;2022-12-05T05:45:50;99338.84;;;12.53;54.82
9893;BME280;4985;49.092;8.542;2022-12-05T05:48:16;99343.50;;;12.51;54.83
9893;BME280;4985;49.092;8.542;2022-12-05T05:50:43;99345.94;;;12.52;54.85
9893;BME280;4985;49.092;8.542;2022-12-05T05:53:09;99343.31;;;12.52;54.84
9893;BME280;4985;49.092;8.542;2022-12-05T05:55:39;99333.94;;;12.50;54.83
9893;BME280;4985;49.092;8.542;2022-12-05T05:58:06;99325.00;;;12.51;54.83
9893;BME280;4985;49.092;8.542;2022-12-05T06:00:33;99323.37;;;12.50;54.83
9893;BME280;4985;49.092;8.542;2022-12-05T06:03:00;99330.28;;;12.51;54.83
9893;BME280;4985;49.092;8.542;2022-12-05T06:05:26;99339.19;;;12.50;54.84
9893;BME280;4985;49.092;8.542;2022-12-05T06:07:53;99340.84;;;12.51;54.83
9893;BME280;4985;49.092;8.542;2022-12-05T06:10:20;99342.66;;;12.50;54.84
9893;BME280;4985;49.092;8.542;2022-12-05T06:12:47;99361.97;;;12.51;54.86
9893;BME280;4985;49.092;8.542;2022-12-05T06:15:14;99365.59;;;12.50;54.86
9893;BME280;4985;49.092;8.542;2022-12-05T06:17:41;99370.06;;;12.49;54.87
9893;BME280;4985;49.092;8.542;2022-12-05T06:20:08;99374.34;;;12.50;54.85
9893;BME280;4985;49.092;8.542;2022-12-05T06:22:35;99380.62;;;12.49;54.86
9893;BME280;4985;49.092;8.542;2022-12-05T06:25:01;99375.34;;;12.49;54.87
9893;BME280;4985;49.092;8.542;2022-12-05T06:27:29;99367.78;;;12.46;54.85
9893;BME280;4985;49.092;8.542;2022-12-05T06:29:57;99377.00;;;12.50;54.83
9893;BME280;4985;49.092;8.542;2022-12-05T06:32:23;99379.62;;;12.50;54.83
9893;BME280;4985;49.092;8.542;2022-12-05T06:34:50;99385.72;;;12.51;54.83
9893;BME280;4985;49.092;8.542;2022-12-05T06:37:17;99393.66;;;12.51;54.84
9893;BME280;4985;49.092;8.542;2022-12-05T06:39:43;99397.28;;;12.50;54.85
9893;BME280;4985;49.092;8.542;2022-12-05T06:42:10;99390.19;;;12.50;54.85
9893;BME280;4985;49.092;8.542;2022-12-05T06:44:37;99392.00;;;12.50;54.85
9893;BME280;4985;49.092;8.542;2022-12-05T06:47:06;99382.44;;;12.49;54.85
9893;BME280;4985;49.092;8.542;2022-12-05T06:49:32;99385.09;;;12.49;54.84
9893;BME280;4985;49.092;8.542;2022-12-05T06:51:59;99376.16;;;12.50;54.85
9893;BME280;4985;49.092;8.542;2022-12-05T06:54:26;99382.28;;;12.50;55.13
9893;BME280;4985;49.092;8.542;2022-12-05T06:56:53;99374.00;;;12.53;55.23
9893;BME280;4985;49.092;8.542;2022-12-05T06:59:19;99379.09;;;12.55;55.10
9893;BME280;4985;49.092;8.542;2022-12-05T07:01:46;99394.94;;;12.55;55.00
9893;BME280;4985;49.092;8.542;2022-12-05T07:04:14;99398.59;;;12.54;55.00
9893;BME280;4985;49.092;8.542;2022-12-05T07:06:43;99411.97;;;12.52;55.01
9893;BME280;4985;49.092;8.542;2022-12-05T07:09:10;99407.69;;;12.51;55.01
9893;BME280;4985;49.092;8.542;2022-12-05T07:11:36;99407.50;;;12.53;54.96
9893;BME280;4985;49.092;8.542;2022-12-05T07:14:03;99416.06;;;12.55;54.93
9893;BME280;4985;49.092;8.542;2022-12-05T07:16:31;99422.34;;;12.54;54.91
9893;BME280;4985;49.092;8.542;2022-12-05T07:18:58;99425.34;;;12.51;54.87
9893;BME280;4985;49.092;8.542;2022-12-05T07:21:26;99429.44;;;12.53;54.87
9893;BME280;4985;49.092;8.542;2022-12-05T07:23:53;99435.56;;;12.54;54.87
9893;BME280;4985;49.092;8.542;2022-12-05T07:26:22;99433.72;;;12.54;54.85
9893;BME280;4985;49.092;8.542;2022-12-05T07:28:50;99441.66;;;12.54;54.83
9893;BME280;4985;49.092;8.542;2022-12-05T07:31:19;99435.56;;;12.54;54.84
9893;BME280;4985;49.092;8.542;2022-12-05T07:33:47;99443.47;;;12.54;54.82
9893;BME280;4985;49.092;8.542;2022-12-05T07:36:15;99440.00;;;12.53;54.82
9893;BME280;4985;49.092;8.542;2022-12-05T07:38:44;99438.19;;;12.54;54.83
9893;BME280;4985;49.092;8.542;2022-12-05T07:41:13;99445.28;;;12.53;54.81
9893;BME280;4985;49.092;8.542;2022-12-05T07:43:42;99451.41;;;12.54;54.80
9893;BME280;4985;49.092;8.542;2022-12-05T07:46:09;99448.75;;;12.54;54.79
9893;BME280;4985;49.092;8.542;2022-12-05T07:48:36;99448.94;;;12.52;54.79
9893;BME280;4985;49.092;8.542;2022-12-05T07:51:05;99447.94;;;12.53;54.80
9893;BME280;4985;49.092;8.542;2022-12-05T07:53:32;99450.56;;;12.53;54.78
9893;BME280;4985;49.092;8.542;2022-12-05T07:56:01;99452.22;;;12.54;54.77
9893;BME280;4985;49.092;8.542;2022-12-05T07:58:28;99451.41;;;12.54;54.75
9893;BME280;4985;49.092;8.542;2022-12-05T08:00:55;99448.75;;;12.54;54.75
9893;BME280;4985;49.092;8.542;2022-12-05T08:03:22;99465.59;;;12.53;54.79
9893;BME280;4985;49.092;8.542;2022-12-05T08:05:49;99453.38;;;12.52;54.80
9893;BME280;4985;49.092;8.542;2022-12-05T08:08:15;99457.84;;;12.51;54.79
9893;BME280;4985;49.092;8.542;2022-12-05T08:10:42;99443.81;;;12.51;54.82
9893;BME280;4985;49.092;8.542;2022-12-05T08:13:10;99446.47;;;12.51;54.83
9893;BME280;4985;49.092;8.542;2022-12-05T08:15:36;99455.38;;;12.50;54.85
9893;BME280;4985;49.092;8.542;2022-12-05T08:18:03;99444.00;;;12.49;54.87
9893;BME280;4985;49.092;8.542;2022-12-05T08:20:30;99455.38;;;12.50;54.85
9893;BME280;4985;49.092;8.542;2022-12-05T08:22:56;99454.56;;;12.49;54.86
9893;BME280;4985;49.092;8.542;2022-12-05T08:25:23;99458.03;;;12.50;54.85
9893;BME280;4985;49.092;8.542;2022-12-05T08:27:49;99462.31;;;12.51;54.85
9893;BME280;4985;49.092;8.542;2022-12-05T08:30:18;99465.31;;;12.48;54.86
9893;BME280;4985;49.092;8.542;2022-12-05T08:32:44;99457.38;;;12.48;54.86
9893;BME280;4985;49.092;8.542;2022-12-05T08:35:11;99474.87;;;12.49;54.89
9893;BME280;4985;49.092;8.542;2022-12-05T08:37:38;99469.59;;;12.49;54.88
9893;BME280;4985;49.092;8.542;2022-12-05T08:40:05;99473.22;;;12.48;54.89
9893;BME280;4985;49.092;8.542;2022-12-05T08:42:32;99479.31;;;12.48;54.89
9893;BME280;4985;49.092;8.542;2022-12-05T08:44:59;99481.97;;;12.48;54.90
9893;BME280;4985;49.092;8.542;2022-12-05T08:47:27;99484.59;;;12.48;54.90
9893;BME280;4985;49.092;8.542;2022-12-05T08:49:53;99489.06;;;12.48;54.88
9893;BME280;4985;49.092;8.542;2022-12-05T08:52:20;99489.87;;;12.48;54.91
9893;BME280;4985;49.092;8.542;2022-12-05T08:54:47;99496.97;;;12.48;54.90
9893;BME280;4985;49.092;8.542;2022-12-05T08:57:13;99499.63;;;12.48;54.89
9893;BME280;4985;49.092;8.542;2022-12-05T08:59:40;99501.44;;;12.47;54.90
9893;BME280;4985;49.092;8.542;2022-12-05T09:02:07;99505.91;;;12.47;54.91
9893;BME280;4985;49.092;8.542;2022-12-05T09:04:35;99503.25;;;12.47;54.91
9893;BME280;4985;49.092;8.542;2022-12-05T09:07:02;99508.53;;;12.47;54.91
9893;BME280;4985;49.092;8.542;2022-12-05T09:09:28;99503.25;;;12.47;54.90
9893;BME280;4985;49.092;8.542;2022-12-05T09:11:56;99519.09;;;12.47;54.89
9893;BME280;4985;49.092;8.542;2022-12-05T09:14:24;99527.66;;;12.49;54.87
9893;BME280;4985;49.092;8.542;2022-12-05T09:16:57;99532.94;;;12.49;54.87
9893;BME280;4985;49.092;8.542;2022-12-05T09:19:24;99533.94;;;12.48;54.89
9893;BME280;4985;49.092;8.542;2022-12-05T09:21:53;99531.31;;;12.48;54.86
9893;BME280;4985;49.092;8.542;2022-12-05T09:24:20;99536.41;;;12.49;54.85
9893;BME280;4985;49.092;8.542;2022-12-05T09:26:46;99541.03;;;12.47;54.87
9893;BME280;4985;49.092;8.542;2022-12-05T09:29:13;99544.50;;;12.48;54.88
9893;BME280;4985;49.092;8.542;2022-12-05T09:31:40;99535.25;;;12.44;54.88
9893;BME280;4985;49.092;8.542;2022-12-05T09:34:07;99545.50;;;12.47;54.89
9893;BME280;4985;49.092;8.542;2022-12-05T09:36:34;99549.78;;;12.48;54.89
9893;BME280;4985;49.092;8.542;2022-12-05T09:39:04;99553.44;;;12.47;54.89
9893;BME280;4985;49.092;8.542;2022-12-05T09:41:46;99554.25;;;12.47;54.90
9893;BME280;4985;49.092;8.542;2022-12-05T09:47:43;99566.28;;;12.50;54.91
9893;BME280;4985;49.092;8.542;2022-12-05T09:50:14;99564.63;;;12.49;54.90
9893;BME280;4985;49.092;8.542;2022-12-05T09:52:50;99561.00;;;12.50;54.88
9893;BME280;4985;49.092;8.542;2022-12-05T09:55:20;99556.72;;;12.49;54.89
9893;BME280;4985;49.092;8.542;2022-12-05T09:57:49;99561.81;;;12.50;54.87
9893;BME280;4985;49.092;8.542;2022-12-05T10:00:17;99562.81;;;12.49;54.89
9893;BME280;4985;49.092;8.542;2022-12-05T10:02:52;99560.19;;;12.49;54.88
9893;BME280;4985;49.092;8.542;2022-12-05T10:05:24;99561.00;;;12.50;54.88
9893;BME280;4985;49.092;8.542;2022-12-05T10:08:00;99554.91;;;12.49;54.87
9893;BME280;4985;49.092;8.542;2022-12-05T10:10:33;99553.72;;;12.52;55.04
9893;BME280;4985;49.092;8.542;2022-12-05T10:13:17;99558.00;;;12.53;55.01
9893;BME280;4985;49.092;8.542;2022-12-05T10:15:49;99565.94;;;12.53;54.99
9893;BME280;4985;49.092;8.542;2022-12-05T10:18:26;99563.66;;;12.50;54.99
9893;BME280;4985;49.092;8.542;2022-12-05T10:20:56;99565.28;;;12.51;54.99
9893;BME280;4985;49.092;8.542;2022-12-05T10:23:29;99559.34;;;12.49;55.00
9893;BME280;4985;49.092;8.542;2022-12-05T10:26:02;99567.28;;;12.49;55.01
9893;BME280;4985;49.092;8.542;2022-12-05T10:28:33;99569.91;;;12.49;55.02
9893;BME280;4985;49.092;8.542;2022-12-05T10:31:06;99573.56;;;12.48;55.03
9893;BME280;4985;49.092;8.542;2022-12-05T10:33:37;99562.16;;;12.47;55.03
9893;BME280;4985;49.092;8.542;2022-12-05T10:36:12;99555.06;;;12.48;55.02
9893;BME280;4985;49.092;8.542;2022-12-05T10:38:40;99560.53;;;12.46;55.02
9893;BME280;4985;49.092;8.542;2022-12-05T10:41:11;99558.84;;;12.45;55.03
9893;BME280;4985;49.092;8.542;2022-12-05T10:43:41;99560.53;;;12.46;55.03
9893;BME280;4985;49.092;8.542;2022-12-05T10:46:09;99561.50;;;12.45;55.05
9893;BME280;4985;49.092;8.542;2022-12-05T10:48:37;99563.16;;;12.46;55.02
9893;BME280;4985;49.092;8.542;2022-12-05T10:51:05;99561.34;;;12.47;54.99
9893;BME280;4985;49.092;8.542;2022-12-05T10:53:38;99555.25;;;12.46;54.99
9893;BME280;4985;49.092;8.542;2022-12-05T10:59:21;99541.22;;;12.46;55.03
9893;BME280;4985;49.092;8.542;2022-12-05T11:01:50;99546.50;;;12.46;55.02
9893;BME280;4985;49.092;8.542;2022-12-05T11:04:21;99537.72;;;12.45;55.01
9893;BME280;4985;49.092;8.542;2022-12-05T11:06:50;99537.72;;;12.45;55.01
9893;BME280;4985;49.092;8.542;2022-12-05T11:09:20;99533.31;;;12.46;55.01
9893;BME280;4985;49.092;8.542;2022-12-05T11:12:05;99530.66;;;12.46;55.01
9893;BME280;4985;49.092;8.542;2022-12-05T11:14:39;99528.84;;;12.46;55.00
9893;BME280;4985;49.092;8.542;2022-12-05T11:17:22;99532.31;;;12.47;54.98
9893;BME280;4985;49.092;8.542;2022-12-05T11:19:50;99531.31;;;12.48;54.96
9893;BME280;4985;49.092;8.542;2022-12-05T11:22:16;99534.78;;;12.48;54.94
9893;BME280;4985;49.092;8.542;2022-12-05T11:24:43;99539.22;;;12.48;54.96
9893;BME280;4985;49.092;8.542;2022-12-05T11:27:20;99534.78;;;12.48;54.94
9893;BME280;4985;49.092;8.542;2022-12-05T11:29:59;99528.66;;;12.48;54.95
9893;BME280;4985;49.092;8.542;2022-12-05T11:32:28;99532.94;;;12.49;54.94
9893;BME280;4985;49.092;8.542;2022-12-05T11:35:00;99532.12;;;12.48;54.93
9893;BME280;4985;49.092;8.542;2022-12-05T11:37:33;99528.66;;;12.48;54.93
9893;BME280;4985;49.092;8.542;2022-12-05T11:40:04;99528.50;;;12.49;54.93
9893;BME280;4985;49.092;8.542;2022-12-05T11:42:43;99531.13;;;12.49;54.91
9893;BME280;4985;49.092;8.542;2022-12-05T11:45:27;99530.31;;;12.49;54.91
9893;BME280;4985;49.092;8.542;2022-12-05T11:48:12;99524.22;;;12.48;54.95
9893;BME280;4985;49.092;8.542;2022-12-05T11:50:47;99517.94;;;12.49;54.93
9893;BME280;4985;49.092;8.542;2022-12-05T11:53:34;99514.47;;;12.49;54.94
9893;BME280;4985;49.092;8.542;2022-12-05T11:56:14;99516.28;;;12.48;54.94
9893;BME280;4985;49.092;8.542;2022-12-05T11:58:58;99518.09;;;12.48;54.98
9893;BME280;4985;49.092;8.542;2022-12-05T12:01:38;99518.09;;;12.48;55.00
9893;BME280;4985;49.092;8.542;2022-12-05T12:04:37;99518.94;;;12.48;55.01
9893;BME280;4985;49.092;8.542;2022-12-05T12:07:21;99519.94;;;12.47;55.05
9893;BME280;4985;49.092;8.542;2022-12-05T12:09:55;99508.53;;;12.47;55.08
9893;BME280;4985;49.092;8.542;2022-12-05T12:12:28;99504.09;;;12.47;55.06
9893;BME280;4985;49.092;8.542;2022-12-05T12:15:08;99496.97;;;12.48;55.06
9893;BME280;4985;49.092;8.542;2022-12-05T12:17:48;99509.38;;;12.47;55.10
9893;BME280;4985;49.092;8.542;2022-12-05T12:20:29;99509.53;;;12.46;55.10
9893;BME280;4985;49.092;8.542;2022-12-05T12:23:12;99512.19;;;12.46;55.13
9893;BME280;4985;49.092;8.542;2022-12-05T12:25:54;99515.78;;;12.45;55.15
9893;BME280;4985;49.092;8.542;2022-12-05T12:28:31;99514.13;;;12.44;55.19
9893;BME280;4985;49.092;8.542;2022-12-05T12:31:05;99508.69;;;12.45;55.17
9893;BME280;4985;49.092;8.542;2022-12-05T12:33:43;99516.59;;;12.45;55.14
9893;BME280;4985;49.092;8.542;2022-12-05T12:36:16;99517.47;;;12.46;55.16
9893;BME280;4985;49.092;8.542;2022-12-05T12:39:02;99514.81;;;12.46;55.17
9893;BME280;4985;49.092;8.542;2022-12-05T12:41:41;99517.47;;;12.46;55.15
9893;BME280;4985;49.092;8.542;2022-12-05T12:44:32;99514.81;;;12.46;55.16
9893;BME280;4985;49.092;8.542;2022-12-05T12:47:10;99524.38;;;12.47;55.18
9893;BME280;4985;49.092;8.542;2022-12-05T12:49:51;99521.75;;;12.47;55.16
9893;BME280;4985;49.092;8.542;2022-12-05T12:52:23;99524.38;;;12.47;55.14
9893;BME280;4985;49.092;8.542;2022-12-05T12:55:03;99520.09;;;12.46;55.17
9893;BME280;4985;49.092;8.542;2022-12-05T12:57:47;99514.81;;;12.46;55.16
9893;BME280;4985;49.092;8.542;2022-12-05T13:00:22;99516.59;;;12.45;55.15
9893;BME280;4985;49.092;8.542;2022-12-05T13:02:57;99519.09;;;12.47;55.15
9893;BME280;4985;49.092;8.542;2022-12-05T13:05:33;99517.47;;;12.46;55.15
9893;BME280;4985;49.092;8.542;2022-12-05T13:08:05;99516.28;;;12.48;55.11
9893;BME280;4985;49.092;8.542;2022-12-05T13:10:40;99511.84;;;12.49;55.08
9893;BME280;4985;49.092;8.542;2022-12-05T13:13:10;99512.66;;;12.49;55.09
9893;BME280;4985;49.092;8.542;2022-12-05T13:15:41;99506.56;;;12.49;55.08
9893;BME280;4985;49.092;8.542;2022-12-05T13:18:15;99505.56;;;12.50;55.10
9893;BME280;4985;49.092;8.542;2022-12-05T13:20:45;99510.00;;;12.49;55.10
9893;BME280;4985;49.092;8.542;2022-12-05T13:23:15;99510.00;;;12.49;55.08
9893;BME280;4985;49.092;8.542;2022-12-05T13:25:44;99520.41;;;12.51;55.06
9893;BME280;4985;49.092;8.542;2022-12-05T13:28:26;99518.75;;;12.50;55.07
9893;BME280;4985;49.092;8.542;2022-12-05T13:30:54;99521.41;;;12.50;55.07
9893;BME280;4985;49.092;8.542;2022-12-05T13:33:28;99515.94;;;12.51;55.06
9893;BME280;4985;49.092;8.542;2022-12-05T13:36:04;99509.84;;;12.51;55.04
9893;BME280;4985;49.092;8.542;2022-12-05T13:38:55;99521.22;;;12.51;55.02
9893;BME280;4985;49.092;8.542;2022-12-05T13:41:42;99519.22;;;12.53;55.01
9893;BME280;4985;49.092;8.542;2022-12-05T13:44:31;99516.59;;;12.53;55.01
9893;BME280;4985;49.092;8.542;2022-12-05T13:46:59;99515.75;;;12.53;55.00
9893;BME280;4985;49.092;8.542;2022-12-05T13:49:31;99521.22;;;12.51;55.02
9893;BME280;4985;49.092;8.542;2022-12-05T13:52:07;99523.69;;;12.53;55.00
9893;BME280;4985;49.092;8.542;2022-12-05T13:54:42;99521.03;;;12.53;55.02